Previous Day
Next Day
Current Day
SHEF ID: FVSO2 FAIRVIEW
STATION TYPE: Mesonet
PRECIP AIR-TEMP WIND-DIRWIND-SPEED REL-HUMID SOLAR-RAD
in F deg mph % W/m2
Raw-Meson Raw-Meson Raw-Meson Raw-Meson Raw-Meson Raw-Meson
(US/Central)
05/29 00:00 0.00 58.73 95.75 4.25 87.75 0.00
05/29 01:00 0.00 57.47 94.25 3.41 91.50 0.00
05/29 02:00 0.00 56.44 91.50 6.26 90.50 0.00
05/29 03:00 0.00 54.91 109.00 6.21 89.75 0.00
05/29 04:00 0.00 53.33 116.00 4.75 92.25 0.00
05/29 05:00 0.00 52.12 113.50 3.30 95.00 0.00
05/29 06:00 0.01 51.44 110.75 4.64 96.00 0.00
05/29 07:00 0.00 51.35 130.50 3.24 95.00 36.25
05/29 08:00 0.00 53.64 114.25 5.20 89.00 179.75
05/29 09:00 0.00 55.63 110.75 9.28 80.75 306.25
05/29 10:00 0.00 57.42 98.50 9.56 75.00 322.50
05/29 11:00 0.00 59.23 81.00 8.33 73.00 595.50
05/29 12:00 0.00 62.60 64.50 7.83 69.00 903.25
05/29 13:00 0.00 65.08 87.00 5.31 64.75 912.75
05/29 14:00 0.00 67.96 75.50 5.99 60.50 998.00
05/29 15:00 0.00 70.84 86.75 8.67 57.00 962.25
05/29 16:00 0.00 72.23 93.25 9.06 53.50 875.50
05/29 17:00 0.00 73.31 108.25 9.06 52.50 738.00
05/29 18:00 0.00 72.68 98.50 11.19 53.00 564.75
05/29 19:00 0.00 70.84 107.75 10.40 55.25 263.75
05/29 20:00 0.00 67.73 109.25 7.94 64.50 83.00
05/29 21:00 0.00 64.22 104.25 5.59 75.50 12.25
05/29 22:00 0.00 61.34 108.25 4.92 83.75 0.00
05/29 23:00 ---- 60.31 98.75 5.70 84.50 0.00